Timeline UpdatesTrip UpdatesNews PostsPvt PostsTravel TipsAdmin PostsConv PostsFollowed PostsChat RequestsBlog PostsPNR Posts

Disclaimer
Search
 
 
Fri Apr 18, 2014 11:06:20 ISTHomeTrainsΣChainsAtlasPNRForumGalleryNewsFAQTripsMembersLoginFeedback
No Recent News for this Train
Other Trains in the News **new
Latest...
Permanent Augmentation of 1 3A coach wef 10/4/14
Fri Apr 04, 2014 (07:10PM)
⇐ Return Journey: Train# 11058

11057/Mumbai LTT - Amritsar (Pathankot) Express

Dec 31 2013 (1:15PM)
Change Departure Station:
Change Arrival Station:
Post a Train Travel TipPost a Train Travel Tip **new
Post a Comment/Question/Picture/VideoPost a Comment/Question/Picture/Video
Pantry/Catering
✕ NO Pantry Car
✓ Catering Avbl
RSA - Rake Sharing
No RSA
Rake/Coach Composition
LOCO-SLR-GEN-GEN-MILITARY-A1-B2-B1-S8-S7-S6-S5-S4-S3-S2-S1-RMS-LDS-[B2-S9-S10-SLR]. ; [B3-S9-S10-SLR] -> Is the Slip portion for Dhule and bifurcates from the main train at Chalisgaon.
Loco
LTT-UMB --> GZB WAP-1/4/7 UMB-ASR --> TKD WDM3A/WDP3A
News    PNR    Forum    Time-Table    Availability    Fare Chart    Map    Arr/Dep History    Trips    Gallery    ΣChains    X/O    Timeline    
Travel Time: 13h 7m    31 halts    Distance: 531 km    Avg Speed: 40 km/hr
Type: Mail/Express
Zone: CR/Central
Departs @ 03:23 (Avg 56m late)
Platform# 2
SMTWTFS
Faridabad/FDB 
Arrives @ 16:30 (Avg 52m late)
Platform# 4
SMTWTFS
Amritsar Junction/ASR 

31 halts. 91 intermediate Stations between Faridabad and Amritsar Junction

Show ALL intermediate Stations  Show Old Time-Table

#CodeStation NameX/OArrivesAvgDepartsAvgHaltPFDay#KmSpeedElevZoneAddress
1LTTMumbai Lokmanya Tilak Terminus (5)  -23:45+131-1499.0457mCRMumbai, Maharashtra
2TNAThane (10)  00:07+500:10+53m72-1482.56110mCRThane, Maharashtra
3KYNKalyan Junction (8)  00:30+1300:35+145m42-1462.35910mCRKalyan 421301, Maharashtra
4KSRAKasara (4)  01:43+1201:45+172m12-1394.929290mCRDist. Thane 421602, Maharashtra
5IGPIgatpuri (4)X02:15+1302:20+195m22-1380.556589mCRIgatpuri 422403, Maharashtra
6DVLDevlali (3)X  03:08+1903:10+202m12-1335.669561mCRDist. Nashik 422401, Maharashtra
7NKNasik Road (3)X  03:15+2303:20+225m12-1329.897563mCRNashik 422101, Maharashtra
8MMRManmad Junction (6)X  04:05+2804:10+275m22-1257.176580mCRManmad 423104, Maharashtra
9CSNChalisgaon Junction (3)  05:03+2505:05+272m--2-1189.596352mCRChalisgaon 424101, Maharashtra
10PCPachora Junction (4)  05:33+2905:35+302m--2-1144.787264mCRPachora 424201, Maharashtra
11JLJalgaon Junction (4)X  06:08+3206:10+332m32-1097.048213mCRJalgaon 425001, Maharashtra
12BSLBhusaval Junction (8)  06:40+3106:50+3510m62-1072.971208mCRBhusaval 425201, Maharashtra
13SAVSavda (2)X  07:03+4107:05+402m--2-1057.465220mCRSavda, Maharashtra
14NBNimbhoraXO  07:13+4107:15+412m--2-1048.776229mCRJalgaon, Maharashtra
15RVRaver (2)X  07:23+4307:25+422m--2-1038.667242mCRJalgaon, Maharashtra
16BAUBurhanpur (2)  07:43+4107:45+422m22-1018.487269mCRBurhanpur, Madhya Pradesh
17NPNRNepanagar (2)X  08:03+4508:05+452m--2-992.228289mCRState Highway 27, Madhya Pradesh
18KNWKhandwa Junction (5)X  09:35+309:40+75m22-949.573310mCRKhandwa, Madhya Pradesh
19TLVTalvadiya (2)X  09:53+1309:55+132m--2-933.899308mWCRKhandwa, Madhya Pradesh
20CAERChhanera (2)X  10:13+1710:15+232m--2-904.188283mWCRChhanera, Madhya Pradesh
21KKNKhirkiya (2)XO  10:36+2510:38+372m22-873.473281mWCRSH 15, Madhya Pradesh
22HDHarda (3)X  11:04+3811:06+372m--2-841.961289mWCRHarda, Madhya Pradesh
23TBNTimarni (2)O  11:20+3711:22+532m--2-827.840308mWCRTimarni, Madhya Pradesh
24BPFBanapura (2)O  12:04+3512:06+382m--2-799.546314mWCRBanapura, Madhya Pradesh
25ETItarsi Junction (7)  12:50+3412:55+385m12-766.160329mWCRItarsi 461111, Madhya Pradesh
26HBDHoshangabad (4)X  13:13+4013:15+402m--2-748.042308mWCRHoshangabad, Madhya Pradesh
27BNIBudni  13:25+4313:27+442m--2-741.051311mWCRSehore MP 466445 Madhya pradesh, Madhya Pradesh
28ODGObaidulla GanjO  14:03+5214:05+532m22-710.258450mWCRObaidullaganj Raisen Dist., Madhya Pradesh
29MDDPMandi Dip (1)O  14:19+5314:21+542m12-696.757449mWCRMandideep, Madhya Pradesh
30HBJBhopal HabibGanj (5)XO  14:38+5614:40+562m12-680.615496mWCRHabibGanj, Madhya Pradesh
31BPLBhopal Junction (6)  15:05+4715:10+535m22-674.485497mWCRBhopal, Madhya Pradesh
32SCISanchi (2)X  15:41+5015:43+502m22-630.243428mWCRRaisen, Madhya Pradesh
33BHSVidisha (3)  15:56+4915:58+492m12-620.870432mWCRVidisha, Madhya Pradesh
34GLGGulabhGanj (3)  16:16+4916:18+492m12-599.892432mWCRVidisha, Madhya Pradesh
35BAQGanj Basoda (4)X  16:30+5116:32+512m12-581.571416mWCRVidisha, Madhya Pradesh
36MABAMandi Bamora (3)XO  16:56+5116:58+512m12-553.025413mWCRState Highway 14, Madhya Pradesh
37BINABina Junction (5)X  17:40+3917:45+405m32-535.858414mWCRJn Pt - KATNI/GUNA/ BPL/JHS, Madhya Pradesh
38DUADhaura (3)X  18:21+4218:23+432m--2-501.253407mNCRDhaura Tanda, Madhya Pradesh
39JLNJakhalaun (3)  18:36+4018:37+411m12-489.672394mNCRLalitpur(05176-272220), Uttar Pradesh
40LARLalitpur (3)  18:51+4218:53+422m32-472.986373mNCRLalitpur, Uttar Pradesh
41TBTTalbahat (4)X  19:21+4519:23+462m32-433.059314mNCRKhaniyadhana Station Rd, Madhya Pradesh
42BZYBasai (3)X  19:36+4519:38+452m22-420.260287mNCR07522289600(Gate ManMob. - 9452701575), Madhya Pradesh
43BABBabina (3)X  19:50+4619:52+462m12-408.140285mNCRBabina, Uttar Pradesh
44JHSJhansi Junction (7)X  20:30+4020:38+458m52-382.668259mNCRJhansi, Uttar Pradesh
45DAADatia (2)X  21:00+4821:02+482m--2-357.563264mNCRDatia, Madhya Pradesh
46SORSonagirX  21:13+4821:15+492m--2-346.071211mNCRDatia, Madhya Pradesh
47DBADabra (3)X  21:31+5121:33+512m--2-327.269204mNCRDabra(District-Gwalior), Madhya Pradesh
48GWLGwalior Junction (4)X  22:10+5722:18+558m22-284.993214mNCRGwalior, Madhya Pradesh
49MRAMorena (3)X  22:43+1:0422:45+1:052m22-246.370176mNCRMorena, Madhya Pradesh
50DHODholpur Junction (3)X  23:08+1:0323:10+1:032m12-219.554177mNCRDholpur, Rajasthan
51AGCAgra Cantt. (6)X  00:08+1:0100:18+1:0310m23-166.834174mNCRAgra, Uttar Pradesh
52RKMRaja Ki Mandi (4)  00:25+1:0800:27+1:082m13-162.869170mNCRAgra, Uttar Pradesh
53MTJMathura Junction (10)X  01:10+1:1101:20+1:0710m33-113.289179mNCRMathura, Uttar Pradesh
54KSVKosi Kalan (3)  01:48+1:1201:50+1:132m13-71.744189mNCRKosi Kalan, Uttar Pradesh
55PWLPalwal (8)  02:48+5002:50+532m--3-29.271200mNRPalwal, Haryana
56BVHBallabgarh (5)  03:08+5503:10+552m33-8.144203mNRFaridabad, Haryana
57FDB»Faridabad (4)»  03:21+5603:23+562m230.052206mNRFaridabad, Haryana
58NZMDelhi Hazrat Nizamuddin (7)  03:47+1:0303:49+1:032m3320.821209mNRNizamuddin East/Sarai KaleKhan Bus Terminal, Delhi NCT
59NDLSNew Delhi (16)  04:10+1:0704:30+1:0420m2328.215215mNRAjmeri Gate/Paharganj, Delhi NCT
60SZMDelhi Sabzi Mandi (2)  04:46+1:0904:48+1:092m--332.349220mNRGulabi Bagh, Delhi NCT
61BHDBadli (2)XO  05:01+1:1105:03+1:122m--342.954217mNRRohini, Delhi NCT
62NURNarela (2)X  05:17+1:1105:19+1:152m--355.638222mNRNarela, Delhi NCT
63SNPSonipat (3)X  05:46+1:0505:48+1:142m--372.679225mNRSonipat, Haryana
64GNUGanaur  06:00+1:2006:02+1:222m--388.539222mNRGanaur, Haryana
65SMKSamalkha (3)  06:21+1:1706:23+1:192m--3100.868229mNRSamalkha, Haryana
66PNPPanipat Junction (5)X  06:38+1:1906:40+1:202m33117.851235mNRPanipat, Haryana
67GRAGharaunda (2)  07:00+1:1607:02+1:192m--3134.766244mNRGharaunda, Haryana
68KUNKarnal (3)  07:18+1:1807:20+1:182m23152.252253mNRKarnal, Haryana
69TRRTaraori (2)  07:34+1:1607:36+1:172m--3164.330255mNRTaraori, Haryana
70NLKRNilokheriXO  07:44+1:1407:46+1:162m--3168.230254mNRNilokheri, Haryana
71KKDEKurukshetra Junction (3)  08:20+1:0208:22+1:032m13185.363260mNRKurukshetra, Haryana
72SHDMShahbad Markanda (2)X  08:43+5908:45+1:002m23207.534267mNRShahabad Markanda, Haryana
73UMBAmbala Cantt. Junction (7)X09:20+5609:40+1:0320m63227.438278mNRAmbala 133001, Haryana
74UBCAmbala City (3)X  09:52+1:0809:54+1:082m33235.072273mNRNH-1, Haryana
75RPJRajpura Junction (3)  10:11+1:1010:13+1:112m13255.568272mNRNH-1, Punjab
76PTAPatiala (4)X  10:35+1:2110:40+1:215m13280.355256mNRPatiala, Punjab
77NBANabha (1)  11:08+1:1711:10+1:182m13306.146250mNRNabha, Punjab
78DUIDhuri Junction (4)  11:45+1:1411:50+1:155m--3333.159248mNRDhuri, Punjab
79METMalerkotla (2)  12:07+1:1712:09+1:172m13349.931248mNRMalerkotla., Punjab
80AHHAhmadgarh (1)  12:48+1:0112:50+1:012m13369.744256mNRAhmedgarh, Punjab
81LDHLudhiana Junction (7)X  13:25+1:1013:35+1:1410m33395.134246mNRLudhiana 141001, Punjab
82PHRPhillaur Junction (3)X  13:58+1:0914:00+1:092m23408.264246mNRPhillaur, Punjab
83GRYGoraya (2)X  14:12+1:0914:14+1:092m23421.054240mNRGoraya, Punjab
84PGWPhagwara Junction (3)X  14:25+1:0814:27+1:082m23430.870245mNRPhagwara, Punjab
85JRCJalandhar Cantt. Junction (3)X  14:41+1:0914:43+1:092m13447.124239mNRNear Rama Mandi, Punjab
86JUCJalandhar City Junction (5)  14:55+1:0615:00+1:095m13451.956239mNRJalandhar 144001, Punjab
87BEASBeas Junction (2)X  15:39+1:0115:41+1:022m13488.080238mNRBeas, Punjab
88JNLJandiala (2)X  15:59+1:0116:01+1:002m13511.940238mNRJandiala, Punjab
89ASR•Amritsar Junction (5)•  16:30+52-43531.1-233mNRAmritsar 143002, Punjab
Scroll to Top
Scroll to Bottom